createdAt,value
2019-04-25T00:00:51.927Z,2.00
2019-04-25T00:01:52.406Z,1.90
2019-04-25T00:02:51.919Z,2.00
2019-04-25T00:03:53.342Z,2.10
2019-04-25T00:04:51.882Z,2.10
2019-04-25T00:05:52.289Z,2.20
2019-04-25T00:06:52.178Z,1.90
2019-04-25T00:07:51.886Z,2.70
2019-04-25T00:08:53.441Z,2.00
2019-04-25T00:09:51.827Z,1.90
2019-04-25T00:10:51.812Z,2.30
2019-04-25T00:11:52.306Z,2.30
2019-04-25T00:12:51.854Z,2.20
2019-04-25T00:13:51.781Z,2.30
2019-04-25T00:14:51.769Z,2.00
2019-04-25T00:15:51.969Z,2.10
2019-04-25T00:16:51.892Z,2.10
2019-04-25T00:17:52.202Z,2.00
2019-04-25T00:18:51.809Z,1.90
2019-04-25T00:19:52.832Z,2.30
2019-04-25T00:20:52.225Z,1.80
2019-04-25T00:21:51.744Z,2.00
2019-04-25T00:22:53.257Z,2.00
2019-04-25T00:23:51.744Z,2.00
2019-04-25T00:24:52.933Z,2.30
2019-04-25T00:25:52.698Z,2.00
2019-04-25T00:26:52.530Z,2.00
2019-04-25T00:27:51.737Z,2.10
2019-04-25T00:28:52.410Z,2.20
2019-04-25T00:29:51.694Z,1.90
2019-04-25T00:30:52.305Z,2.10
2019-04-25T00:31:52.830Z,2.30
2019-04-25T00:32:51.600Z,2.20
2019-04-25T00:33:53.241Z,1.80
2019-04-25T00:34:51.885Z,2.00
2019-04-25T00:35:52.702Z,1.90
2019-04-25T00:36:51.656Z,2.30
2019-04-25T00:37:52.539Z,2.00
2019-04-25T00:38:52.305Z,2.10
2019-04-25T00:39:51.781Z,2.10
2019-04-25T00:40:52.430Z,2.20
2019-04-25T00:41:52.043Z,2.30
2019-04-25T00:42:53.413Z,2.00
2019-04-25T00:43:52.564Z,2.00
2019-04-25T00:44:52.429Z,2.20
2019-04-25T00:45:52.676Z,2.00
2019-04-25T00:46:54.297Z,2.10
2019-04-25T00:47:52.941Z,1.80
2019-04-25T00:48:52.461Z,2.10
2019-04-25T00:49:52.361Z,1.90
2019-04-25T00:50:53.493Z,2.00
2019-04-25T00:51:52.376Z,2.00
2019-04-25T00:52:53.326Z,2.00
2019-04-25T00:53:53.634Z,2.10
2019-04-25T00:54:52.645Z,2.50
2019-04-25T00:55:52.522Z,2.30
2019-04-25T00:56:52.782Z,2.00
2019-04-25T00:57:52.550Z,2.00
2019-04-25T00:58:52.855Z,2.10
2019-04-25T00:59:52.832Z,1.90
2019-04-25T01:00:53.071Z,2.20
2019-04-25T01:01:51.903Z,1.90
2019-04-25T01:02:53.349Z,1.80
2019-04-25T01:03:53.346Z,2.20
2019-04-25T01:04:52.055Z,2.00
2019-04-25T01:05:53.289Z,2.00
2019-04-25T01:06:52.015Z,2.10
2019-04-25T01:07:52.438Z,2.00
2019-04-25T01:08:53.227Z,2.00
2019-04-25T01:09:52.423Z,2.10
2019-04-25T01:10:52.287Z,1.90
2019-04-25T01:11:52.322Z,1.90
2019-04-25T01:12:52.316Z,2.00
2019-04-25T01:13:52.510Z,1.90
2019-04-25T01:14:52.820Z,1.90
2019-04-25T01:15:52.634Z,1.90
2019-04-25T01:16:52.699Z,2.20
2019-04-25T01:17:51.554Z,2.00
2019-04-25T01:18:51.062Z,2.10
2019-04-25T01:19:51.085Z,2.00
2019-04-25T01:20:51.212Z,2.00
2019-04-25T01:21:51.194Z,1.90
2019-04-25T01:22:51.373Z,1.90
2019-04-25T01:23:51.465Z,1.90
2019-04-25T01:24:51.466Z,2.20
2019-04-25T01:25:51.593Z,1.70
2019-04-25T01:26:51.669Z,2.10
2019-04-25T01:27:51.812Z,2.10
2019-04-25T01:28:51.832Z,1.90
2019-04-25T01:29:51.227Z,2.00
2019-04-25T01:30:50.947Z,2.20
2019-04-25T01:31:50.916Z,2.00
2019-04-25T01:32:50.934Z,2.20
2019-04-25T01:33:50.900Z,1.70
2019-04-25T01:34:53.700Z,2.10
2019-04-25T01:35:50.874Z,2.20
2019-04-25T01:36:50.867Z,2.00
2019-04-25T01:37:51.106Z,1.90
2019-04-25T01:38:51.087Z,2.00
2019-04-25T01:39:51.085Z,2.00
2019-04-25T01:40:51.201Z,2.00
2019-04-25T01:41:51.287Z,2.00
2019-04-25T01:42:51.547Z,2.00
2019-04-25T01:43:53.224Z,2.20
2019-04-25T01:44:51.806Z,1.90
2019-04-25T01:45:51.717Z,1.90
2019-04-25T01:46:50.770Z,1.60
2019-04-25T01:47:50.740Z,1.90
2019-04-25T01:48:50.747Z,1.60
2019-04-25T01:49:50.733Z,1.90
2019-04-25T01:50:50.726Z,1.90
2019-04-25T01:51:50.703Z,1.80
2019-04-25T01:52:50.689Z,1.90
2019-04-25T01:53:50.683Z,1.80
2019-04-25T01:54:50.672Z,2.00
2019-04-25T01:55:55.902Z,2.20
2019-04-25T01:56:51.643Z,1.70
2019-04-25T01:57:50.939Z,2.00
2019-04-25T01:58:51.134Z,1.80
2019-04-25T01:59:51.386Z,1.90
2019-04-25T02:00:52.066Z,1.90
2019-04-25T02:01:51.044Z,1.80
2019-04-25T02:02:51.144Z,2.90
2019-04-25T02:03:51.254Z,2.00
2019-04-25T02:04:51.430Z,1.90
2019-04-25T02:05:51.365Z,1.90
2019-04-25T02:06:50.721Z,2.00
2019-04-25T02:07:51.398Z,2.00
2019-04-25T02:08:50.883Z,1.90
2019-04-25T02:09:50.934Z,1.70
2019-04-25T02:10:50.852Z,2.00
2019-04-25T02:11:51.041Z,1.90
2019-04-25T02:12:51.375Z,1.90
2019-04-25T02:13:51.397Z,2.00
2019-04-25T02:14:50.445Z,2.10
2019-04-25T02:15:50.644Z,2.30
2019-04-25T02:16:50.440Z,2.10
2019-04-25T02:17:51.111Z,2.30
2019-04-25T02:18:51.017Z,2.40
2019-04-25T02:19:51.993Z,2.40
2019-04-25T02:20:50.387Z,2.20
2019-04-25T02:21:50.393Z,2.40
2019-04-25T02:22:50.361Z,2.20
2019-04-25T02:23:50.348Z,2.60
2019-04-25T02:24:50.347Z,2.30
2019-04-25T02:25:50.349Z,2.40
2019-04-25T02:26:50.327Z,2.50
2019-04-25T02:27:50.297Z,2.80
2019-04-25T02:28:50.288Z,2.60
2019-04-25T02:29:50.286Z,2.50
2019-04-25T02:30:50.270Z,2.30
2019-04-25T02:31:50.273Z,2.40
2019-04-25T02:32:50.244Z,2.40
2019-04-25T02:33:50.239Z,2.30
2019-04-25T02:34:50.223Z,2.50
2019-04-25T02:35:50.215Z,2.60
2019-04-25T02:36:50.279Z,2.60
2019-04-25T02:37:50.191Z,2.60
2019-04-25T02:38:50.182Z,2.60
2019-04-25T02:39:50.170Z,3.30
2019-04-25T02:40:50.155Z,2.70
2019-04-25T02:41:50.163Z,2.50
2019-04-25T02:42:50.156Z,2.70
2019-04-25T02:43:50.140Z,2.70
2019-04-25T02:44:50.116Z,2.70
2019-04-25T02:45:50.105Z,3.00
2019-04-25T02:46:50.095Z,3.10
2019-04-25T02:47:50.097Z,3.00
2019-04-25T02:48:50.069Z,3.60
2019-04-25T02:49:50.061Z,3.20
2019-04-25T02:50:50.114Z,3.30
2019-04-25T02:51:50.052Z,3.30
2019-04-25T02:52:50.054Z,3.10
2019-04-25T02:53:50.021Z,3.30
2019-04-25T02:54:50.007Z,3.30
2019-04-25T02:55:49.999Z,3.20
2019-04-25T02:56:49.983Z,2.90
2019-04-25T02:57:49.988Z,3.30
2019-04-25T02:58:49.973Z,3.40
2019-04-25T02:59:49.985Z,3.00
2019-04-25T03:00:59.763Z,3.00
2019-04-25T03:01:50.926Z,3.50
2019-04-25T03:02:49.952Z,3.20
2019-04-25T03:03:49.908Z,3.00
2019-04-25T03:04:49.920Z,3.00
2019-04-25T03:05:49.914Z,3.20
2019-04-25T03:06:49.871Z,3.40
2019-04-25T03:07:49.895Z,3.20
2019-04-25T03:08:49.848Z,3.00
2019-04-25T03:09:49.846Z,2.80
2019-04-25T03:10:49.834Z,2.70
2019-04-25T03:11:49.820Z,2.90
2019-04-25T03:12:49.825Z,2.80
2019-04-25T03:13:49.817Z,2.60
2019-04-25T03:14:49.791Z,2.60
2019-04-25T03:15:52.617Z,2.60
2019-04-25T03:16:49.776Z,3.20
2019-04-25T03:17:49.749Z,2.50
2019-04-25T03:18:49.758Z,2.70
2019-04-25T03:19:49.761Z,2.80
2019-04-25T03:20:49.770Z,2.50
2019-04-25T03:21:49.725Z,2.40
2019-04-25T03:22:49.699Z,2.50
2019-04-25T03:23:49.715Z,2.40
2019-04-25T03:24:49.680Z,2.50
2019-04-25T03:25:49.662Z,2.50
2019-04-25T03:26:49.653Z,2.30
2019-04-25T03:27:49.640Z,2.20
2019-04-25T03:28:49.647Z,2.20
2019-04-25T03:29:49.629Z,2.20
2019-04-25T03:30:49.607Z,2.40
2019-04-25T03:31:49.598Z,2.10
2019-04-25T03:32:51.685Z,2.30
2019-04-25T03:33:49.592Z,2.30
2019-04-25T03:34:49.573Z,2.80
2019-04-25T03:35:49.557Z,2.40
2019-04-25T03:36:49.543Z,2.30
2019-04-25T03:37:49.532Z,2.40
2019-04-25T03:38:49.537Z,2.50
2019-04-25T03:39:49.527Z,2.40
2019-04-25T03:40:49.500Z,2.30
2019-04-25T03:41:49.556Z,2.60
2019-04-25T03:42:49.480Z,2.40
2019-04-25T03:43:49.496Z,2.60
2019-04-25T03:44:49.475Z,2.40
2019-04-25T03:45:49.470Z,2.10
2019-04-25T03:46:49.435Z,2.40
2019-04-25T03:47:49.427Z,2.30
2019-04-25T03:48:49.754Z,2.40
2019-04-25T03:49:49.405Z,2.30
2019-04-25T03:50:49.389Z,2.50
2019-04-25T03:51:49.385Z,2.60
2019-04-25T03:52:49.378Z,2.60
2019-04-25T03:53:49.365Z,2.40
2019-04-25T03:54:49.370Z,2.40
2019-04-25T03:55:49.345Z,2.30
2019-04-25T03:56:53.587Z,2.40
2019-04-25T03:57:50.313Z,2.60
2019-04-25T03:58:49.319Z,2.30
2019-04-25T03:59:49.340Z,2.20
2019-04-25T04:00:49.284Z,2.50
2019-04-25T04:01:49.280Z,2.40
2019-04-25T04:02:49.267Z,2.50
2019-04-25T04:03:49.250Z,2.10
2019-04-25T04:04:49.262Z,2.40
2019-04-25T04:05:49.226Z,2.20
2019-04-25T04:06:49.216Z,2.10
2019-04-25T04:07:49.206Z,2.00
2019-04-25T04:08:49.197Z,2.40
2019-04-25T04:09:49.218Z,2.30
2019-04-25T04:10:49.171Z,2.30
2019-04-25T04:11:49.184Z,2.60
2019-04-25T04:12:49.151Z,2.10
2019-04-25T04:13:49.138Z,2.60
2019-04-25T04:14:49.154Z,2.00
2019-04-25T04:15:49.135Z,2.40
2019-04-25T04:16:49.108Z,2.00
2019-04-25T04:17:49.097Z,2.50
2019-04-25T04:18:49.083Z,1.90
2019-04-25T04:19:49.101Z,2.10
2019-04-25T04:20:49.059Z,2.10
2019-04-25T04:21:49.056Z,2.00
2019-04-25T04:22:49.044Z,2.00
2019-04-25T04:23:49.042Z,2.00
2019-04-25T04:24:49.047Z,2.30
2019-04-25T04:25:49.027Z,2.10
2019-04-25T04:26:48.994Z,2.00
2019-04-25T04:27:49.000Z,2.30
2019-04-25T04:28:49.007Z,2.20
2019-04-25T04:29:48.976Z,2.10
2019-04-25T04:30:48.977Z,2.60
2019-04-25T04:31:48.942Z,2.10
2019-04-25T04:32:48.932Z,2.10
2019-04-25T04:33:48.929Z,2.10
2019-04-25T04:34:48.910Z,2.00
2019-04-25T04:35:48.917Z,2.30
2019-04-25T04:36:48.887Z,2.30
2019-04-25T04:37:48.878Z,2.00
2019-04-25T04:38:48.906Z,2.30
2019-04-25T04:39:48.883Z,2.20
2019-04-25T04:40:48.857Z,2.50
2019-04-25T04:41:48.839Z,2.10
2019-04-25T04:42:48.823Z,2.10
2019-04-25T04:43:48.810Z,2.10
2019-04-25T04:44:48.808Z,2.10
2019-04-25T04:45:48.813Z,1.90
2019-04-25T04:46:48.778Z,2.20
2019-04-25T04:47:48.765Z,2.30
2019-04-25T04:48:48.757Z,2.40
2019-04-25T04:49:48.747Z,2.40
2019-04-25T04:50:48.754Z,2.40
2019-04-25T04:51:48.736Z,2.20
2019-04-25T04:52:48.712Z,1.90
2019-04-25T04:53:48.698Z,2.30
2019-04-25T04:54:48.700Z,2.10
2019-04-25T04:55:48.701Z,2.30
2019-04-25T04:56:48.669Z,2.10
2019-04-25T04:57:48.662Z,2.20
2019-04-25T04:58:48.647Z,2.20
2019-04-25T04:59:48.926Z,2.30
2019-04-25T05:00:51.420Z,2.30
2019-04-25T05:01:48.924Z,2.20
2019-04-25T05:02:48.654Z,2.50
2019-04-25T05:03:48.597Z,2.00
2019-04-25T05:04:49.232Z,2.10
2019-04-25T05:05:48.608Z,2.50
2019-04-25T05:06:48.617Z,2.30
2019-04-25T05:07:48.614Z,2.30
2019-04-25T05:08:48.561Z,2.50
2019-04-25T05:09:49.402Z,2.30
2019-04-25T05:10:48.550Z,2.40
2019-04-25T05:11:48.654Z,2.20
2019-04-25T05:12:49.238Z,2.30
2019-04-25T05:13:48.526Z,2.40
2019-04-25T05:14:48.505Z,2.40
2019-04-25T05:15:48.606Z,2.40
2019-04-25T05:16:49.617Z,2.20
2019-04-25T05:17:48.638Z,2.50
2019-04-25T05:18:48.474Z,2.50
2019-04-25T05:19:49.305Z,2.20
2019-04-25T05:20:48.536Z,2.20
2019-04-25T05:21:48.909Z,2.20
2019-04-25T05:22:48.452Z,2.20
2019-04-25T05:23:48.429Z,2.00
2019-04-25T05:24:48.397Z,2.30
2019-04-25T05:25:48.364Z,2.50
2019-04-25T05:26:48.427Z,2.30
2019-04-25T05:28:00.142Z,2.30
2019-04-25T05:28:49.322Z,2.10
2019-04-25T05:29:48.307Z,2.30
2019-04-25T05:30:48.302Z,2.30
2019-04-25T05:31:48.285Z,2.20
2019-04-25T05:32:48.421Z,2.20
2019-04-25T05:33:48.266Z,2.00
2019-04-25T05:34:49.388Z,1.90
2019-04-25T05:35:48.242Z,2.10
2019-04-25T05:36:48.237Z,2.00
2019-04-25T05:37:48.235Z,2.10
2019-04-25T05:38:48.208Z,2.00
2019-04-25T05:39:48.194Z,1.90
2019-04-25T05:40:48.186Z,2.30
2019-04-25T05:41:48.176Z,2.10
2019-04-25T05:42:48.184Z,2.10
2019-04-25T05:43:48.173Z,1.90
2019-04-25T05:44:48.144Z,1.90
2019-04-25T05:45:48.128Z,1.90
2019-04-25T05:46:48.122Z,1.80
2019-04-25T05:47:48.126Z,1.90
2019-04-25T05:48:48.113Z,1.70
2019-04-25T05:49:48.086Z,1.80
2019-04-25T05:50:48.096Z,1.60
2019-04-25T05:51:48.064Z,1.80
2019-04-25T05:52:48.099Z,1.70
2019-04-25T05:53:48.086Z,1.70
2019-04-25T05:54:48.031Z,1.90
2019-04-25T05:55:48.068Z,1.90
2019-04-25T05:56:48.025Z,1.80
2019-04-25T05:57:50.238Z,1.70
2019-04-25T05:58:47.989Z,1.80
2019-04-25T05:59:47.996Z,1.60
2019-04-25T06:00:47.973Z,1.50
2019-04-25T06:01:47.961Z,1.40
2019-04-25T06:02:47.961Z,1.50
2019-04-25T06:03:47.964Z,1.60
2019-04-25T06:04:47.921Z,1.60
2019-04-25T06:05:47.917Z,1.60
2019-04-25T06:06:47.898Z,1.50
2019-04-25T06:07:47.904Z,1.70
2019-04-25T06:08:47.881Z,1.70
2019-04-25T06:09:47.875Z,1.70
2019-04-25T06:10:47.852Z,1.70
2019-04-25T06:11:47.844Z,1.60
2019-04-25T06:12:47.854Z,1.50
2019-04-25T06:13:47.834Z,1.90
2019-04-25T06:14:47.814Z,1.60
2019-04-25T06:15:47.801Z,1.40
2019-04-25T06:16:47.817Z,1.20
2019-04-25T06:17:47.777Z,1.60
2019-04-25T06:18:47.788Z,1.80
2019-04-25T06:19:47.764Z,1.60
2019-04-25T06:20:47.762Z,1.40
2019-04-25T06:21:47.740Z,2.10
2019-04-25T06:22:47.734Z,2.50
2019-04-25T06:23:47.727Z,3.40
2019-04-25T06:24:47.702Z,3.30
2019-04-25T06:25:47.687Z,2.30
2019-04-25T06:26:47.689Z,1.80
2019-04-25T06:27:56.493Z,1.60
2019-04-25T06:28:53.595Z,2.20
2019-04-25T06:29:58.102Z,2.10
2019-04-25T06:30:48.639Z,1.90
2019-04-25T06:31:47.628Z,1.90
2019-04-25T06:32:47.612Z,1.90
2019-04-25T06:33:47.707Z,1.90
2019-04-25T06:34:47.625Z,1.90
2019-04-25T06:35:47.585Z,2.00
2019-04-25T06:36:47.590Z,2.10
2019-04-25T06:37:47.573Z,2.10
2019-04-25T06:38:47.576Z,1.60
2019-04-25T06:39:47.557Z,1.50
2019-04-25T06:40:47.526Z,1.60
2019-04-25T06:41:47.540Z,1.40
2019-04-25T06:42:47.501Z,1.70
2019-04-25T06:43:47.516Z,1.70
2019-04-25T06:44:47.502Z,1.70
2019-04-25T06:45:50.085Z,2.00
2019-04-25T06:46:47.470Z,2.10
2019-04-25T06:47:47.446Z,1.50
2019-04-25T06:48:47.434Z,1.40
2019-04-25T06:49:47.446Z,1.40
2019-04-25T06:50:47.410Z,1.40
2019-04-25T06:51:47.398Z,1.20
2019-04-25T06:52:47.393Z,1.70
2019-04-25T06:53:47.399Z,1.40
2019-04-25T06:54:47.383Z,1.30
2019-04-25T06:55:47.377Z,1.40
2019-04-25T06:56:47.346Z,1.30
2019-04-25T06:57:47.341Z,1.50
2019-04-25T06:58:47.322Z,1.40
2019-04-25T06:59:47.330Z,1.20
2019-04-25T07:00:58.084Z,1.50
2019-04-25T07:01:48.288Z,1.50
2019-04-25T07:02:47.276Z,1.60
2019-04-25T07:03:47.266Z,1.50
2019-04-25T07:04:47.271Z,1.40
2019-04-25T07:05:47.241Z,1.10
2019-04-25T07:06:49.408Z,1.30
2019-04-25T07:07:47.221Z,1.20
2019-04-25T07:08:47.225Z,1.30
2019-04-25T07:09:47.239Z,1.20
2019-04-25T07:10:47.193Z,1.30
2019-04-25T07:11:48.243Z,1.00
2019-04-25T07:12:47.170Z,1.40
2019-04-25T07:13:47.165Z,1.30
2019-04-25T07:14:47.188Z,1.40
2019-04-25T07:15:47.135Z,1.20
2019-04-25T07:16:47.121Z,1.00
2019-04-25T07:17:47.110Z,1.30
2019-04-25T07:18:47.099Z,1.10
2019-04-25T07:19:47.127Z,1.20
2019-04-25T07:20:47.100Z,1.00
2019-04-25T07:21:47.068Z,1.00
2019-04-25T07:22:47.061Z,1.20
2019-04-25T07:23:47.049Z,1.20
2019-04-25T07:24:47.042Z,1.00
2019-04-25T07:25:47.039Z,1.20
2019-04-25T07:26:47.017Z,1.10
2019-04-25T07:27:47.009Z,1.30
2019-04-25T07:28:46.994Z,1.40
2019-04-25T07:29:46.981Z,1.20
2019-04-25T07:30:51.935Z,1.20
2019-04-25T07:31:47.957Z,1.30
2019-04-25T07:32:46.946Z,1.20
2019-04-25T07:33:46.942Z,1.20
2019-04-25T07:34:46.937Z,1.10
2019-04-25T07:35:46.951Z,1.30
2019-04-25T07:36:46.903Z,1.30
2019-04-25T07:37:46.898Z,1.20
2019-04-25T07:38:46.930Z,1.40
2019-04-25T07:39:46.883Z,1.30
2019-04-25T07:40:46.879Z,1.50
2019-04-25T07:41:46.845Z,1.40
2019-04-25T07:42:46.849Z,1.30
2019-04-25T07:43:46.836Z,2.00
2019-04-25T07:44:52.569Z,1.50
2019-04-25T07:45:47.818Z,1.20
2019-04-25T07:46:46.793Z,1.30
2019-04-25T07:47:46.811Z,1.20
2019-04-25T07:48:46.787Z,1.50
2019-04-25T07:49:46.765Z,1.40
2019-04-25T07:50:46.770Z,1.20
2019-04-25T07:51:46.740Z,1.20
2019-04-25T07:52:46.730Z,1.30
2019-04-25T07:53:46.740Z,1.30
2019-04-25T07:54:46.736Z,1.40
2019-04-25T07:55:46.718Z,1.20
2019-04-25T07:56:46.713Z,1.20
2019-04-25T07:57:46.668Z,1.30
2019-04-25T07:58:52.156Z,1.10
2019-04-25T07:59:47.666Z,1.00
2019-04-25T08:00:46.635Z,1.30
2019-04-25T08:01:46.650Z,1.40
2019-04-25T08:02:46.614Z,1.40
2019-04-25T08:03:46.607Z,1.20
2019-04-25T08:04:46.591Z,1.50
2019-04-25T08:05:46.586Z,1.20
2019-04-25T08:06:46.587Z,1.20
2019-04-25T08:07:46.562Z,1.30
2019-04-25T08:08:46.600Z,1.30
2019-04-25T08:09:46.535Z,1.50
2019-04-25T08:10:46.532Z,1.40
2019-04-25T08:11:46.539Z,1.20
2019-04-25T08:12:47.482Z,1.40
2019-04-25T08:13:46.496Z,1.50
2019-04-25T08:14:46.484Z,1.30
2019-04-25T08:15:46.477Z,1.30
2019-04-25T08:16:46.514Z,1.40
2019-04-25T08:17:46.451Z,1.40
2019-04-25T08:18:46.438Z,1.20
2019-04-25T08:19:46.425Z,1.10
2019-04-25T08:20:46.604Z,1.10
2019-04-25T08:21:46.424Z,1.30
2019-04-25T08:22:55.821Z,1.10
2019-04-25T08:23:47.382Z,1.10
2019-04-25T08:24:46.407Z,1.10
2019-04-25T08:25:46.360Z,1.00
2019-04-25T08:26:46.377Z,1.00
2019-04-25T08:27:46.355Z,0.90
2019-04-25T08:28:54.804Z,1.10
2019-04-25T08:29:47.346Z,0.90
2019-04-25T08:30:46.311Z,1.20
2019-04-25T08:31:46.309Z,1.10
2019-04-25T08:32:46.308Z,1.10
2019-04-25T08:33:46.727Z,0.90
2019-04-25T08:34:46.270Z,0.90
2019-04-25T08:36:03.456Z,1.00
2019-04-25T08:36:47.283Z,0.90
2019-04-25T08:37:46.229Z,1.00
2019-04-25T08:38:46.222Z,0.90
2019-04-25T08:39:46.224Z,0.90
2019-04-25T08:40:46.194Z,1.40
2019-04-25T08:41:46.188Z,1.10
2019-04-25T08:42:46.192Z,1.10
2019-04-25T08:43:46.171Z,1.30
2019-04-25T08:44:46.158Z,1.20
2019-04-25T08:45:46.138Z,1.20
2019-04-25T08:46:48.686Z,1.20
2019-04-25T08:47:46.150Z,1.00
2019-04-25T08:48:46.108Z,1.20
2019-04-25T08:49:46.207Z,1.30
2019-04-25T08:50:46.085Z,1.30
2019-04-25T08:51:46.081Z,1.00
2019-04-25T08:52:46.101Z,1.10
2019-04-25T08:53:46.056Z,1.20
2019-04-25T08:54:47.677Z,1.00
2019-04-25T08:55:46.037Z,1.00
2019-04-25T08:56:46.023Z,1.10
2019-04-25T08:57:46.012Z,1.10
2019-04-25T08:58:46.022Z,1.10
2019-04-25T08:59:52.340Z,1.30
2019-04-25T09:00:58.069Z,1.20
2019-04-25T09:01:46.966Z,1.20
2019-04-25T09:02:45.965Z,1.10
2019-04-25T09:03:45.963Z,1.00
2019-04-25T09:04:45.933Z,1.00
2019-04-25T09:05:46.323Z,0.90
2019-04-25T09:06:45.918Z,0.90
2019-04-25T09:07:45.903Z,1.00
2019-04-25T09:08:46.652Z,0.90
2019-04-25T09:09:45.879Z,1.00
2019-04-25T09:10:45.868Z,1.00
2019-04-25T09:11:46.992Z,1.10
2019-04-25T09:12:45.883Z,1.10
2019-04-25T09:13:45.855Z,1.00
2019-04-25T09:14:46.476Z,1.10
2019-04-25T09:15:45.894Z,1.00
2019-04-25T09:16:45.806Z,1.00
2019-04-25T09:17:47.053Z,1.00
2019-04-25T09:18:46.507Z,1.00
2019-04-25T09:19:45.777Z,1.10
2019-04-25T09:20:46.691Z,0.90
2019-04-25T09:21:49.376Z,0.90
2019-04-25T09:22:45.738Z,1.00
2019-04-25T09:23:45.767Z,0.70
2019-04-25T09:24:45.714Z,0.90
2019-04-25T09:25:46.214Z,0.90
2019-04-25T09:26:45.703Z,0.90
2019-04-25T09:27:47.002Z,0.70
2019-04-25T09:28:46.691Z,0.90
2019-04-25T09:29:46.329Z,0.80
2019-04-25T09:30:45.969Z,1.10
2019-04-25T09:31:46.085Z,0.90
2019-04-25T09:32:45.802Z,0.90
2019-04-25T09:33:46.720Z,0.70
2019-04-25T09:34:45.945Z,0.80
2019-04-25T09:35:46.042Z,0.80
2019-04-25T09:36:45.585Z,1.10
2019-04-25T09:37:46.241Z,0.90
2019-04-25T09:38:48.466Z,0.70
2019-04-25T09:39:45.641Z,0.90
2019-04-25T09:40:46.592Z,0.90
2019-04-25T09:41:46.205Z,1.00
2019-04-25T09:42:46.291Z,1.10
2019-04-25T09:43:46.029Z,0.80
2019-04-25T09:44:45.494Z,0.90
2019-04-25T09:45:46.102Z,0.90
2019-04-25T09:46:46.850Z,0.90
2019-04-25T09:47:45.761Z,1.10
2019-04-25T09:48:45.832Z,0.80
2019-04-25T09:49:46.280Z,0.90
2019-04-25T09:50:46.346Z,1.00
2019-04-25T09:51:45.786Z,1.00
2019-04-25T09:52:47.037Z,1.00
2019-04-25T09:53:50.042Z,1.10
2019-04-25T09:54:46.448Z,1.00
2019-04-25T09:55:47.210Z,1.00
2019-04-25T09:56:46.075Z,0.80
2019-04-25T09:57:45.922Z,1.00
2019-04-25T09:58:48.273Z,1.20
2019-04-25T09:59:46.210Z,0.90
2019-04-25T10:00:45.983Z,0.80
2019-04-25T10:01:45.942Z,0.80
2019-04-25T10:02:45.301Z,0.80
2019-04-25T10:03:45.733Z,1.00
2019-04-25T10:04:46.358Z,1.00
2019-04-25T10:05:45.298Z,0.90
2019-04-25T10:06:46.039Z,1.00
2019-04-25T10:07:46.214Z,1.00
2019-04-25T10:08:46.260Z,1.30
2019-04-25T10:09:46.240Z,1.00
2019-04-25T10:10:45.215Z,1.00
2019-04-25T10:11:46.402Z,1.00
2019-04-25T10:12:45.360Z,0.90
2019-04-25T10:13:45.202Z,0.80
2019-04-25T10:14:47.598Z,0.80
2019-04-25T10:15:45.666Z,0.90
2019-04-25T10:16:45.590Z,1.00
2019-04-25T10:17:46.111Z,0.90
2019-04-25T10:18:45.875Z,1.10
2019-04-25T10:19:45.607Z,1.00
2019-04-25T10:20:46.262Z,1.10
2019-04-25T10:21:45.231Z,1.30
2019-04-25T10:22:45.667Z,1.00
2019-04-25T10:23:46.601Z,0.90
2019-04-25T10:24:58.348Z,0.80
2019-04-25T10:25:46.540Z,0.80
2019-04-25T10:26:45.430Z,1.00
2019-04-25T10:27:48.220Z,1.20
2019-04-25T10:28:45.262Z,1.00
2019-04-25T10:29:50.914Z,1.00
2019-04-25T10:30:46.918Z,0.80
2019-04-25T10:31:45.220Z,1.10
2019-04-25T10:32:45.386Z,0.90
2019-04-25T10:33:45.815Z,0.90
2019-04-25T10:34:46.088Z,1.10
2019-04-25T10:35:51.911Z,0.90
2019-04-25T10:36:46.759Z,1.00
2019-04-25T10:37:45.636Z,1.20
2019-04-25T10:39:01.405Z,0.90
2019-04-25T10:39:46.042Z,0.70
2019-04-25T10:40:46.132Z,0.70
2019-04-25T10:41:46.530Z,1.00
2019-04-25T10:42:48.071Z,0.80
2019-04-25T10:43:45.979Z,1.20
2019-04-25T10:44:46.849Z,1.10
2019-04-25T10:45:46.352Z,1.20
2019-04-25T10:46:46.134Z,1.20
2019-04-25T10:47:45.267Z,1.00
2019-04-25T10:48:44.808Z,1.10
2019-04-25T10:49:45.872Z,1.10
2019-04-25T10:50:45.961Z,0.90
2019-04-25T10:51:45.796Z,0.90
2019-04-25T10:52:46.178Z,1.00
2019-04-25T10:53:45.978Z,0.80
2019-04-25T10:54:45.772Z,1.10
2019-04-25T10:55:45.494Z,1.50
2019-04-25T10:56:47.019Z,1.40
2019-04-25T10:57:45.526Z,1.00
2019-04-25T10:58:46.378Z,0.80
2019-04-25T10:59:55.254Z,1.00
2019-04-25T11:00:47.313Z,1.10
2019-04-25T11:01:46.055Z,1.00
2019-04-25T11:02:45.489Z,0.90
2019-04-25T11:03:45.558Z,0.70
2019-04-25T11:04:48.251Z,1.00
2019-04-25T11:05:45.205Z,1.10
2019-04-25T11:06:45.520Z,0.90
2019-04-25T11:07:44.581Z,1.10
2019-04-25T11:08:44.937Z,1.00
2019-04-25T11:09:45.493Z,0.70
2019-04-25T11:10:47.507Z,1.20
2019-04-25T11:11:44.580Z,1.00
2019-04-25T11:12:45.383Z,1.00
2019-04-25T11:13:45.271Z,0.90
2019-04-25T11:14:44.520Z,1.00
2019-04-25T11:15:44.941Z,1.30
2019-04-25T11:16:45.561Z,0.90
2019-04-25T11:17:45.810Z,1.10
2019-04-25T11:18:45.451Z,0.90
2019-04-25T11:19:44.617Z,0.90
2019-04-25T11:20:44.712Z,0.90
2019-04-25T11:21:45.620Z,1.10
2019-04-25T11:22:45.084Z,0.70
2019-04-25T11:23:47.677Z,1.10
2019-04-25T11:24:44.438Z,0.90
2019-04-25T11:25:45.281Z,1.10
2019-04-25T11:26:47.113Z,1.00
2019-04-25T11:27:47.031Z,1.30
2019-04-25T11:28:45.360Z,1.00
2019-04-25T11:29:45.041Z,0.80
2019-04-25T11:30:45.870Z,0.90
2019-04-25T11:31:45.771Z,1.00
2019-04-25T11:32:45.166Z,0.70
2019-04-25T11:33:44.297Z,0.80
2019-04-25T11:34:46.123Z,0.80
2019-04-25T11:35:46.811Z,0.80
2019-04-25T11:36:44.269Z,0.90
2019-04-25T11:37:44.270Z,0.90
2019-04-25T11:38:45.291Z,0.80
2019-04-25T11:39:45.058Z,0.90
2019-04-25T11:40:47.835Z,0.80
2019-04-25T11:41:46.056Z,0.90
2019-04-25T11:42:45.924Z,0.90
2019-04-25T11:43:46.239Z,0.70
2019-04-25T11:44:45.477Z,0.80
2019-04-25T11:45:45.087Z,0.80
2019-04-25T11:46:45.329Z,0.70
2019-04-25T11:47:45.912Z,1.20
2019-04-25T11:48:45.095Z,1.30
2019-04-25T11:49:46.396Z,0.80
2019-04-25T11:50:48.451Z,0.90
2019-04-25T11:51:46.062Z,0.70
2019-04-25T11:52:44.113Z,0.90
2019-04-25T11:53:45.264Z,0.80
2019-04-25T11:54:45.741Z,1.10
2019-04-25T11:55:44.843Z,1.50
2019-04-25T11:56:45.944Z,1.20
2019-04-25T11:57:47.349Z,1.00
2019-04-25T11:58:46.499Z,1.40
2019-04-25T11:59:45.210Z,1.10
2019-04-25T12:00:45.785Z,1.20
2019-04-25T12:01:45.352Z,1.50
2019-04-25T12:02:44.171Z,1.40
2019-04-25T12:03:46.610Z,1.70
2019-04-25T12:04:45.518Z,1.10
2019-04-25T12:05:45.837Z,1.60
2019-04-25T12:06:46.981Z,1.00
2019-04-25T12:07:45.359Z,0.80
2019-04-25T12:08:46.427Z,2.80
2019-04-25T12:09:45.798Z,1.70
2019-04-25T12:10:45.803Z,1.30
2019-04-25T12:11:46.514Z,1.10
2019-04-25T12:12:46.264Z,1.20
2019-04-25T12:13:45.901Z,1.20
2019-04-25T12:14:45.090Z,1.20
2019-04-25T12:15:46.040Z,1.00
2019-04-25T12:16:48.166Z,0.80
2019-04-25T12:17:44.874Z,0.90
2019-04-25T12:18:47.618Z,1.10
2019-04-25T12:19:44.808Z,1.40
2019-04-25T12:20:44.725Z,1.30
2019-04-25T12:21:44.705Z,1.10
2019-04-25T12:22:45.377Z,0.90
2019-04-25T12:23:46.017Z,0.90
2019-04-25T12:24:45.367Z,0.70
2019-04-25T12:25:45.331Z,0.90
2019-04-25T12:26:46.103Z,0.80
2019-04-25T12:27:45.267Z,1.40
2019-04-25T12:28:43.702Z,1.50
2019-04-25T12:29:44.040Z,0.90
2019-04-25T12:30:44.846Z,0.90
2019-04-25T12:31:45.463Z,1.10
2019-04-25T12:32:44.182Z,1.00
2019-04-25T12:33:46.346Z,0.90
2019-04-25T12:34:43.655Z,0.90
2019-04-25T12:35:43.856Z,0.90
2019-04-25T12:36:44.405Z,1.00
2019-04-25T12:37:44.194Z,1.00
2019-04-25T12:38:44.981Z,1.10
2019-04-25T12:39:43.626Z,1.00
2019-04-25T12:40:43.604Z,1.10
2019-04-25T12:41:44.133Z,0.90
2019-04-25T12:42:44.459Z,0.90
2019-04-25T12:43:43.945Z,1.20
2019-04-25T12:44:46.252Z,1.10
2019-04-25T12:45:43.517Z,1.00
2019-04-25T12:46:43.677Z,0.90
2019-04-25T12:47:43.492Z,0.90
2019-04-25T12:48:43.493Z,1.10
2019-04-25T12:49:43.834Z,1.20
2019-04-25T12:50:43.951Z,1.00
2019-04-25T12:51:43.457Z,0.70
2019-04-25T12:52:43.499Z,0.70
2019-04-25T12:53:43.846Z,0.80
2019-04-25T12:54:44.047Z,0.70
2019-04-25T12:55:44.256Z,0.60
2019-04-25T12:56:43.453Z,1.00
2019-04-25T12:57:43.406Z,0.80
2019-04-25T12:58:43.551Z,1.00
2019-04-25T12:59:45.113Z,1.30
2019-04-25T13:00:49.475Z,0.90
2019-04-25T13:01:44.343Z,0.80
2019-04-25T13:02:44.694Z,0.80
2019-04-25T13:03:43.955Z,0.70
2019-04-25T13:04:44.287Z,0.70
2019-04-25T13:05:44.260Z,0.90
2019-04-25T13:06:43.694Z,0.90
2019-04-25T13:07:43.311Z,0.70
2019-04-25T13:08:44.093Z,0.80
2019-04-25T13:09:43.269Z,0.80
2019-04-25T13:10:44.439Z,0.80
2019-04-25T13:11:43.519Z,1.00
2019-04-25T13:12:44.378Z,0.70
2019-04-25T13:13:43.588Z,0.90
2019-04-25T13:14:43.215Z,1.10
2019-04-25T13:15:45.802Z,0.70
2019-04-25T13:16:44.317Z,0.80
2019-04-25T13:17:43.691Z,1.10
2019-04-25T13:18:43.171Z,1.10